»·PEaware :: N1306C KPDX-KDLS

N1306C :: KPDX-KDLS

FLIGHT INFORMATION

Flight Status: Arrived
Operator: Privately registered:
United States
More flights under this callsign
Pilot: Mark S. (16827)
Aircraft: CESSNA 182 SKYLANE
(C182)
More flights by this aircraft type
Origin: KPDX Portland Intl
United States
Destination: KDLS Columbia Gorge Regl/The Dalle
United States
More flights between these airports :: More routes between these airports
Route: PTLD1 BTG V182 LTJ FEDUM
File this flight plan on PilotEdge
Remarks:
Altitude:
(Current/Filed)
7,000ft
Speed:
(Current/Filed)
155kts
Departed: 20-Jun-20 12:43 PM
Arrived: 20-Jun-20 01:23 PM
Distance/Time
Traveled:
60nm/0:40
Distance/Time
To Go:
Arrived

Flight Plot

Page will automatically refresh every two minutes.


Map Options




Map Legend


Flown Route
Filed Route
Departure Airport
Arrival Airport
Navaid (VOR, NDB)
Fix

Horizontal Profiles

Position Reports

Time Latitude Longitude Heading Altitude Ground
Speed
20-Jun-20 12:09 45.588148 -122.585292 297 22ft 0kts
20-Jun-20 12:10 45.588148 -122.585292 297 22ft 0kts
20-Jun-20 12:11 45.588148 -122.585292 297 22ft 0kts
20-Jun-20 12:12 45.588148 -122.585292 297 22ft 0kts
20-Jun-20 12:13 45.588149 -122.585293 297 22ft 0kts
20-Jun-20 12:14 45.588149 -122.585293 297 22ft 0kts
20-Jun-20 12:15 45.588149 -122.585293 297 22ft 0kts
20-Jun-20 12:16 45.588149 -122.585293 297 22ft 0kts
20-Jun-20 12:17 45.588149 -122.585293 297 22ft 0kts
20-Jun-20 12:18 45.588149 -122.585293 297 22ft 0kts
20-Jun-20 12:19 45.588149 -122.585293 297 22ft 0kts
20-Jun-20 12:20 45.588149 -122.585293 297 22ft 0kts
20-Jun-20 12:21 45.588149 -122.585293 297 22ft 0kts
20-Jun-20 12:22 45.588149 -122.585293 297 22ft 0kts
20-Jun-20 12:23 45.588149 -122.585293 297 22ft 0kts
20-Jun-20 12:24 45.588149 -122.585293 297 22ft 0kts
20-Jun-20 12:25 45.588152 -122.585302 298 22ft 0kts
20-Jun-20 12:26 45.588831 -122.586320 319 22ft 5kts
20-Jun-20 12:27 45.590206 -122.589201 295 22ft 13kts
20-Jun-20 12:28 45.592350 -122.594518 290 22ft 15kts
20-Jun-20 12:29 45.593883 -122.598098 357 26ft 9kts
20-Jun-20 12:30 45.594436 -122.597520 45 26ft 0kts
20-Jun-20 12:31 45.594436 -122.597519 46 26ft 0kts
20-Jun-20 12:32 45.594436 -122.597520 46 26ft 0kts
20-Jun-20 12:33 45.594436 -122.597520 46 26ft 0kts
20-Jun-20 12:34 45.594436 -122.597520 46 26ft 0kts
20-Jun-20 12:35 45.594436 -122.597520 46 26ft 0kts
20-Jun-20 12:36 45.594436 -122.597520 46 26ft 0kts
20-Jun-20 12:37 45.594436 -122.597520 46 26ft 0kts
20-Jun-20 12:38 45.594436 -122.597520 46 26ft 0kts
20-Jun-20 12:39 45.594436 -122.597520 46 26ft 0kts
20-Jun-20 12:40 45.594436 -122.597520 46 26ft 0kts
20-Jun-20 12:41 45.594483 -122.597446 48 26ft 3kts
20-Jun-20 12:42 45.589871 -122.583734 120 364ft 77kts
20-Jun-20 12:43 45.583454 -122.553363 100 1546ft 83kts
20-Jun-20 12:44 45.579344 -122.518569 100 2683ft 94kts
20-Jun-20 12:45 45.577330 -122.480515 68 3836ft 106kts
20-Jun-20 12:46 45.588982 -122.440647 71 4615ft 114kts
20-Jun-20 12:47 45.600726 -122.398034 71 5361ft 119kts
20-Jun-20 12:48 45.613029 -122.353908 72 6131ft 121kts
20-Jun-20 12:49 45.626593 -122.308849 72 6885ft 125kts
20-Jun-20 12:50 45.640835 -122.254973 73 7023ft 158kts
20-Jun-20 12:51 45.658174 -122.194021 70 6987ft 170kts
20-Jun-20 12:52 45.674393 -122.130801 75 7007ft 169kts
20-Jun-20 12:53 45.694835 -122.069386 72 6967ft 172kts
20-Jun-20 12:54 45.710394 -122.012891 71 6995ft 170kts
20-Jun-20 12:55 45.725948 -121.957599 71 6995ft 171kts
20-Jun-20 12:56 45.734004 -121.899135 97 6995ft 165kts
20-Jun-20 12:57 45.732900 -121.838240 97 6995ft 165kts
20-Jun-20 12:58 45.731623 -121.780878 97 6995ft 165kts
20-Jun-20 12:59 45.730136 -121.721527 101 6994ft 163kts
20-Jun-20 13:00 45.712226 -121.674779 128 7005ft 154kts
20-Jun-20 13:01 45.692604 -121.628422 127 6663ft 168kts
20-Jun-20 13:02 45.672433 -121.580579 127 6259ft 170kts
20-Jun-20 13:03 45.652268 -121.532856 127 6010ft 161kts
20-Jun-20 13:04 45.633298 -121.488057 127 6010ft 153kts
20-Jun-20 13:05 45.615597 -121.446397 127 6010ft 152kts
20-Jun-20 13:06 45.597800 -121.404473 127 6010ft 152kts
20-Jun-20 13:07 45.579623 -121.361795 127 6006ft 152kts
20-Jun-20 13:08 45.562737 -121.322126 127 6000ft 152kts
20-Jun-20 13:09 45.543306 -121.276621 127 5996ft 152kts
20-Jun-20 13:10 45.520289 -121.222756 127 5991ft 152kts
20-Jun-20 13:11 45.489797 -121.151600 127 5982ft 152kts
20-Jun-20 13:12 45.458721 -121.079422 127 5972ft 147kts
20-Jun-20 13:13 45.438693 -121.012788 121 5573ft 155kts
20-Jun-20 13:14 45.409742 -120.997064 240 4907ft 144kts
20-Jun-20 13:15 45.429539 -121.041912 316 4490ft 143kts
20-Jun-20 13:16 45.459613 -121.074068 319 4323ft 136kts
20-Jun-20 13:17 45.491560 -121.108991 321 3644ft 144kts
20-Jun-20 13:18 45.524022 -121.141088 327 3164ft 140kts
20-Jun-20 13:20 45.560287 -121.157186 352 2808ft 114kts
20-Jun-20 13:21 45.587455 -121.155746 28 2046ft 92kts
20-Jun-20 13:22 45.606103 -121.155634 301 614ft 84kts
20-Jun-20 13:23 45.618911 -121.168870 325 227ft 30kts
20-Jun-20 13:24 45.620146 -121.171476 204 222ft 2kts
20-Jun-20 13:25 45.618834 -121.173525 281 221ft 0kts
20-Jun-20 13:26 45.618834 -121.173524 281 221ft 0kts
20-Jun-20 13:27 45.618834 -121.173524 281 221ft 0kts
20-Jun-20 13:28 45.618834 -121.173524 281 221ft 0kts
20-Jun-20 13:29 45.618834 -121.173524 281 221ft 0kts
20-Jun-20 13:30 45.618834 -121.173524 281 221ft 0kts
20-Jun-20 13:31 45.618834 -121.173524 281 221ft 0kts
20-Jun-20 13:32 45.618834 -121.173524 281 221ft 0kts
20-Jun-20 13:33 45.618834 -121.173524 281 221ft 0kts
20-Jun-20 13:34 45.618834 -121.173524 281 221ft 0kts
20-Jun-20 13:35 45.618834 -121.173524 281 221ft 0kts
20-Jun-20 13:36 45.618834 -121.173524 281 221ft 0kts
20-Jun-20 13:37 45.618834 -121.173524 281 221ft 0kts
20-Jun-20 13:37 45.618834 -121.173524 281 221ft 0kts

Navigation Log

Ident Type
Flight plan parsing failed, navigation log unavailable